• Join FlightAware (Why Join?)
  • Login
  • US Flag 
12:41PM EDT


 

Airport Tracker/Info


-or-


 

Live Flight TrackerFlight Track Log ✈ SWA4092 ✈ 01-Jan-2013 ✈ KLAS - KPDX

Flight Track Log - Related Links

Times and Time Zones

All times are in EST time to prevent confusion due to time zone crossing. See the SWA4092 flight status page for this flight to view local times or setup timezone preferences in your user account.

Time Position Orientation Groundspeed Altitude Reporting Facility
EST Latitude Longitude Course Direction KTS MPH feet Rate Location/Type
11:50PM 36.1314 -115.1739 321° Northwest 205 236 4,300  Level Los Angeles Center
11:51PM 36.1133 -115.2597 255° West 257 296 7,100 2,280 Climbing Los Angeles Center
11:52PM 36.0528 -115.3194 219° Southwest 294 338 9,000 960 Climbing Los Angeles Center
11:53PM 35.9747 -115.3583 202° Southwest 310 357 9,100 1,080 Climbing Los Angeles Center
11:54PM 35.9000 -115.4119 210° Southwest 316 364 11,300 1,980 Climbing Los Angeles Center
11:55PM 35.9581 -116.0581 321° Northwest  Level FlightAware Approximate
11:55PM 35.8867 -115.5292 262° West 354 407 13,300  Level Los Angeles Center
11:56PM 35.8914 -115.6781 272° West 377 434 15,900 2,100 Climbing Los Angeles Center
11:57PM 35.8936 -115.8158 271° West 401 461 17,700 1,800 Climbing Los Angeles Center
11:58PM 35.9006 -115.9586 273° West 415 478 19,600 1,800 Climbing Los Angeles Center
11:59PM 35.9764 -116.0614 312° West 404 465 21,400 1,740 Climbing Los Angeles Center
12:00AM 36.0672 -116.1667 317° Northwest 418 481 23,200 1,560 Climbing Los Angeles Center
12:01AM 36.1450 -116.2564 317° Northwest 421 484 24,700 1,320 Climbing Los Angeles Center
12:02AM 36.2328 -116.3581 317° Northwest 430 495 26,000 1,320 Climbing Los Angeles Center
12:03AM 36.3231 -116.4622 317° Northwest 440 506 27,500 1,560 Climbing Los Angeles Center
12:04AM 36.4125 -116.5678 316° Northwest 444 511 29,200 1,620 Climbing Los Angeles Center
12:05AM 36.5181 -116.6911 317° Northwest 438 504 30,900 1,320 Climbing Los Angeles Center
12:06AM 36.5986 -116.7811 318° Northwest 433 498 31,900 780 Climbing Los Angeles Center
12:07AM 36.6967 -116.8656 325° Northwest 436 502 32,500 1,020 Climbing Los Angeles Center
12:08AM 36.8017 -116.9556 326° Northwest 427 491 34,100 1,560 Climbing Los Angeles Center
12:09AM 36.8847 -117.0325 323° Northwest 418 481 35,700 900 Climbing Oakland Center
12:10AM 36.9717 -117.1103 324° Northwest 396 456 36,000 120 Climbing Oakland Center
12:11AM 37.0644 -117.1814 329° Northwest 392 451 36,000  Level Oakland Center
12:12AM 37.1633 -117.2478 332° Northwest 399 459 36,000  Level Oakland Center
12:13AM 37.2628 -117.3178 331° Northwest 405 466 36,000  Level Oakland Center
12:14AM 37.3625 -117.3878 331° Northwest 408 470 36,000  Level Oakland Center
12:15AM 37.4608 -117.4575 331° Northwest 405 466 36,000  Level Oakland Center
12:16AM 37.5592 -117.5261 331° Northwest 403 464 36,000  Level Oakland Center
12:17AM 37.6581 -117.5956 331° Northwest 403 464 36,000  Level Oakland Center
12:18AM 37.7564 -117.6658 331° Northwest 403 464 36,000  Level Oakland Center
12:19AM 37.8747 -117.7494 331° Northwest 403 464 36,000  Level Oakland Center
12:20AM 37.9739 -117.8206 331° Northwest 405 466 36,000  Level Oakland Center
12:21AM 38.0739 -117.8908 331° Northwest 407 468 36,000  Level Oakland Center
12:22AM 38.1733 -117.9619 331° Northwest 407 468 36,000  Level Oakland Center
12:23AM 38.2722 -118.0333 330° Northwest 407 468 36,000  Level Oakland Center
12:24AM 38.3711 -118.1058 330° Northwest 408 470 36,000  Level Oakland Center
12:25AM 38.4522 -118.1647 330° Northwest 400 460 36,000  Level Oakland Center
12:26AM 38.5461 -118.2325 331° Northwest 391 450 36,000  Level Oakland Center
12:27AM 38.6569 -118.3133 330° Northwest 385 443 36,000  Level Oakland Center
12:28AM 38.7483 -118.3819 330° Northwest 382 440 36,000  Level Oakland Center
12:29AM 38.8397 -118.4489 330° Northwest 380 437 36,000  Level Oakland Center
12:30AM 38.9317 -118.5156 331° Northwest 379 436 36,000  Level Oakland Center
12:31AM 39.0250 -118.5856 330° Northwest 385 443 36,000  Level Oakland Center
12:32AM 39.1203 -118.6567 330° Northwest 393 452 36,000  Level Oakland Center
12:33AM 39.2136 -118.7258 330° Northwest 398 458 36,000  Level Oakland Center
12:34AM 39.3103 -118.7981 330° Northwest 400 460 36,000  Level Oakland Center
12:35AM 39.4064 -118.8714 329° Northwest 401 461 36,000  Level Oakland Center
12:36AM 39.5131 -118.9514 330° Northwest 401 461 36,000  Level Oakland Center
12:37AM 39.6081 -119.0233 330° Northwest 397 457 36,000  Level Oakland Center
12:38AM 39.7019 -119.0950 330° Northwest 392 451 36,000  Level Oakland Center
12:39AM 39.7958 -119.1667 330° Northwest 391 450 36,000  Level Oakland Center
12:40AM 39.8906 -119.2375 330° Northwest 392 451 36,000  Level Oakland Center
12:41AM 39.9842 -119.3100 329° Northwest 392 451 36,000  Level Oakland Center
12:42AM 40.0772 -119.3814 330° Northwest 389 448 36,000  Level Oakland Center
12:43AM 40.1700 -119.4528 330° Northwest 387 445 36,000  Level Oakland Center
12:44AM 40.2622 -119.5233 330° Northwest 385 443 36,000  Level Oakland Center
12:45AM 40.3561 -119.5969 329° Northwest 391 450 36,000  Level Oakland Center
12:46AM 40.4506 -119.6717 329° Northwest 394 453 36,000  Level Oakland Center
12:47AM 40.5522 -119.7503 330° Northwest 401 461 36,000  Level Oakland Center
12:48AM 40.6497 -119.8269 329° Northwest 406 467 36,000 -540 Level Oakland Center
12:49AM 40.7456 -119.9033 329° Northwest 403 464 35,000 -1,020 Descending Oakland Center
12:50AM 40.8317 -119.9700 330° Northwest 359 413 34,000 -540 Descending Oakland Center
12:51AM 40.9183 -120.0389 329° Northwest 360 414 34,000  Level Oakland Center
12:52AM 40.9547 -120.0681 329° Northwest 367 422 34,000  Level Seattle Center
12:53AM 41.0453 -120.1417 328° Northwest 376 433 34,000  Level Seattle Center
12:54AM 41.1367 -120.2150 329° Northwest 382 440 34,000  Level Seattle Center
12:55AM 41.2286 -120.2889 329° Northwest 385 443 34,000  Level Seattle Center
12:56AM 41.3208 -120.3628 329° Northwest 385 443 34,000  Level Seattle Center
12:57AM 41.4350 -120.4478 331° Northwest 390 449 34,000  Level Seattle Center
12:58AM 41.5269 -120.5228 329° Northwest 388 447 34,000  Level Seattle Center
12:59AM 41.6169 -120.5964 329° Northwest 384 442 34,000  Level Seattle Center
01:00AM 41.7067 -120.6694 329° Northwest 380 437 34,000  Level Seattle Center
01:01AM 41.7942 -120.7439 328° Northwest 376 433 34,000  Level Seattle Center
01:02AM 41.8858 -120.8167 329° Northwest 381 438 34,000  Level Seattle Center
01:03AM 41.9756 -120.8906 329° Northwest 381 438 34,000  Level Seattle Center
01:04AM 42.0647 -120.9633 329° Northwest 377 434 34,000  Level Seattle Center
01:05AM 42.1539 -121.0369 329° Northwest 378 435 34,000  Level Seattle Center
01:06AM 42.2417 -121.1106 328° Northwest 375 432 34,000  Level Seattle Center
01:07AM 42.3306 -121.1842 329° Northwest 375 432 34,000  Level Seattle Center
01:08AM 42.4186 -121.2586 328° Northwest 375 432 34,000  Level Seattle Center
01:09AM 42.5072 -121.3317 329° Northwest 375 432 34,000  Level Seattle Center
01:10AM 42.5931 -121.4044 328° Northwest 370 426 34,000  Level Seattle Center
01:11AM 42.6814 -121.4769 329° Northwest 372 428 34,000  Level Seattle Center
01:12AM 42.7700 -121.5514 328° Northwest 374 430 34,000  Level Seattle Center
01:13AM 42.8592 -121.6272 328° Northwest 377 434 34,000  Level Seattle Center
01:14AM 42.9483 -121.7006 329° Northwest 377 434 34,000  Level Seattle Center
01:15AM 43.0367 -121.7800 327° Northwest 385 443 34,000  Level Seattle Center
01:16AM 43.1264 -121.8597 327° Northwest 385 443 34,000  Level Seattle Center
01:17AM 43.2144 -121.9317 329° Northwest 375 432 34,000  Level Seattle Center
01:18AM 43.3081 -122.0111 328° Northwest 375 432 34,000  Level Seattle Center
01:19AM 43.3975 -122.0878 328° Northwest 378 435 34,000  Level Seattle Center
01:20AM 43.4869 -122.1650 328° Northwest 379 436 34,000  Level Seattle Center
01:21AM 43.5758 -122.2431 328° Northwest 379 436 34,000  Level Seattle Center
01:22AM 43.6650 -122.3219 327° Northwest 381 438 34,000  Level Seattle Center
01:23AM 43.7547 -122.4000 328° Northwest 381 438 34,000  Level Seattle Center
01:24AM 43.8436 -122.4792 327° Northwest 381 438 34,000  Level Seattle Center
01:25AM 43.9503 -122.5750 327° Northwest 381 438 34,000 -1,260 Level Seattle Center
01:26AM 44.0397 -122.6547 327° Northwest 382 440 31,500 -2,640 Descending Seattle Center
01:27AM 44.1308 -122.7350 328° Northwest 386 444 28,800 -2,460 Descending Seattle Center
01:28AM 44.2397 -122.7436 357° North 398 458 26,600 -2,280 Descending Seattle Center
01:29AM 44.3500 -122.7314 North 402 463 24,300 -2,340 Descending Seattle Center
01:30AM 44.4603 -122.7208 North 400 460 22,000 -2,280 Descending Seattle Center
01:31AM 44.5678 -122.7097 North 395 455 19,800 -2,100 Descending Seattle Center
01:32AM 44.6169 -122.7053 North 379 436 19,000 -1,680 Descending Seattle Center
01:32AM 44.6572 -122.7014 North 373 429 18,400 -1,680 Descending Seattle Center
01:33AM 44.7525 -122.6906 North 351 404 16,700 -1,920 Descending Seattle Center
01:34AM 44.8486 -122.6825 North 344 396 14,500 -2,040 Descending Seattle Center
01:35AM 44.9483 -122.6728 North 339 390 12,700 -1,380 Descending Seattle Center
01:36AM 45.0375 -122.6642 North 322 371 11,800 -1,200 Descending Seattle Center
01:37AM 45.1253 -122.6686 358° North 319 367 10,400 -1,200 Descending Seattle Center
01:38AM 45.2019 -122.7050 342° North 293 337 9,400 -1,200 Descending Seattle Center
01:39AM 45.2781 -122.7386 343° North 285 328 8,000 -1,440 Descending Seattle Center
01:40AM 45.3500 -122.7739 341° North 276 318 6,500 -1,440 Descending Seattle Center
01:41AM 45.4236 -122.8058 343° North 274 315 5,200 -1,320 Descending Seattle Center
01:42AM 45.4878 -122.8353 342° North 265 305 4,000 -900 Descending Seattle Center
01:43AM 45.5603 -122.7967 20° North 255 293 3,500 -660 Descending Seattle Center
01:44AM 45.6203 -122.7600 23° Northeast 228 262 2,700 -900 Descending Seattle Center
01:45AM 45.6303 -122.7128 73° East 168 193 1,800 -1,020 Descending Seattle Center
01:46AM 45.6119 -122.6647 119° Southeast 125 144 700 -600 Descending Seattle Center
01:47AM 45.5897 -122.6142 122° Southeast 147 169 500 -180 Descending Seattle Center